Time;durP1;ratioP1;P1;durP2;ratioP2;P2;SDS_P1;SDS_P2;PMS_P1;PMS_P2;Temp;Humidity;BMP_temperature;BMP_pressure;BME280_temperature;BME280_humidity;BME280_pressure;Samples;Min_cycle;Max_cycle;Signal;HPM_P1;HPM_P2
2023/04/16 00:01:55;;;;;;;;;;;;;;;8.23;100.00;97808.34;18303440;32;20072;-57
2023/04/16 00:11:58;;;;;;;;;;;;;;;8.17;100.00;97814.72;18303099;32;20005;-57
2023/04/16 00:22:00;;;;;;;;;;;;;;;8.13;100.00;97811.75;18301412;32;19956;-57
2023/04/16 00:32:02;;;;;;;;;;;;;;;8.10;100.00;97810.38;18302161;32;20273;-57
2023/04/16 00:42:04;;;;;;;;;;;;;;;8.04;100.00;97822.13;18301279;32;20000;-57
2023/04/16 00:52:07;;;;;;;;;;;;;;;8.02;100.00;97828.84;18301080;32;19945;-57
2023/04/16 01:02:09;;;;;;;;;;;;;;;8.00;100.00;97831.75;18286425;32;19953;-57
2023/04/16 01:12:12;;;;;;;;;;;;;;;7.96;100.00;97830.63;18300026;32;20270;-57
2023/04/16 01:22:15;;;;;;;;;;;;;;;7.87;100.00;97829.44;18299810;32;20009;-57
2023/04/16 01:32:17;;;;;;;;;;;;;;;7.82;100.00;97822.09;18298743;32;20340;-57
2023/04/16 01:42:19;;;;;;;;;;;;;;;7.74;100.00;97826.06;18298195;32;20380;-57
2023/04/16 01:52:21;;;;;;;;;;;;;;;7.70;100.00;97826.78;18297996;32;19964;-57
2023/04/16 02:02:26;;;;;;;;;;;;;;;7.67;100.00;97838.03;18297567;32;19960;-57
2023/04/16 02:12:29;;;;;;;;;;;;;;;7.63;100.00;97837.72;18297317;32;19968;-57
2023/04/16 02:22:31;;;;;;;;;;;;;;;7.60;100.00;97849.78;18296629;32;19958;-57
2023/04/16 02:32:33;;;;;;;;;;;;;;;7.58;100.00;97845.72;18296303;32;20299;-57
2023/04/16 02:42:36;;;;;;;;;;;;;;;7.59;100.00;97842.78;18281017;32;20265;-57
2023/04/16 02:52:38;;;;;;;;;;;;;;;7.57;100.00;97836.81;18295325;32;19983;-57
2023/04/16 03:02:41;;;;;;;;;;;;;;;7.54;100.00;97831.94;18294630;32;19974;-57
2023/04/16 03:12:43;;;;;;;;;;;;;;;7.52;100.00;97847.50;18281076;32;20280;-57
2023/04/16 03:22:46;;;;;;;;;;;;;;;7.50;100.00;97827.31;18294069;32;19960;-57
2023/04/16 03:32:48;;;;;;;;;;;;;;;7.46;100.00;97854.69;18293784;32;20301;-57
2023/04/16 03:42:51;;;;;;;;;;;;;;;7.48;100.00;97846.38;18279263;32;19960;-57
2023/04/16 03:52:53;;;;;;;;;;;;;;;7.47;100.00;97839.38;18281622;32;19958;-57
2023/04/16 04:02:55;;;;;;;;;;;;;;;7.49;100.00;97858.75;18303330;32;20009;-57
2023/04/16 04:12:58;;;;;;;;;;;;;;;7.49;100.00;97857.97;18303197;32;19949;-57
2023/04/16 04:23:00;;;;;;;;;;;;;;;7.50;100.00;97840.75;18288967;32;19985;-57
2023/04/16 04:33:03;;;;;;;;;;;;;;;7.42;100.00;97841.97;18302188;32;20351;-57
2023/04/16 04:43:05;;;;;;;;;;;;;;;7.41;100.00;97849.25;18301190;32;20017;-56
2023/04/16 04:53:10;;;;;;;;;;;;;;;7.39;100.00;97864.81;18301027;32;20100;-57
2023/04/16 05:03:18;;;;;;;;;;;;;;;7.39;100.00;97856.72;18299994;32;19945;-57
2023/04/16 05:13:20;;;;;;;;;;;;;;;7.41;100.00;97878.00;18300714;32;19966;-57
2023/04/16 05:23:22;;;;;;;;;;;;;;;7.40;100.00;97890.66;18285854;32;19987;-57
2023/04/16 05:33:24;;;;;;;;;;;;;;;7.37;100.00;97901.91;18299006;32;20023;-57
2023/04/16 05:43:27;;;;;;;;;;;;;;;7.39;100.00;97917.81;18298321;32;19942;-57
2023/04/16 05:53:29;;;;;;;;;;;;;;;7.43;100.00;97908.19;18298340;32;19954;-57
2023/04/16 06:03:31;;;;;;;;;;;;;;;7.44;100.00;97916.00;18297495;32;19949;-56
2023/04/16 06:13:34;;;;;;;;;;;;;;;7.44;100.00;97925.94;18297165;32;19954;-57
2023/04/16 06:23:36;;;;;;;;;;;;;;;7.41;100.00;97929.97;18296438;32;20238;-57
2023/04/16 06:33:38;;;;;;;;;;;;;;;7.35;100.00;97944.38;18296256;32;19950;-57
2023/04/16 06:43:40;;;;;;;;;;;;;;;7.32;100.00;97960.16;18295715;32;19945;-57
2023/04/16 06:53:42;;;;;;;;;;;;;;;7.29;100.00;97951.53;18295261;32;20009;-57
2023/04/16 07:03:45;;;;;;;;;;;;;;;7.33;100.00;97964.50;18281095;32;20278;-56
2023/04/16 07:13:49;;;;;;;;;;;;;;;7.32;100.00;97971.75;18280937;32;19993;-57
2023/04/16 07:23:52;;;;;;;;;;;;;;;7.36;100.00;97982.81;18294157;32;19992;-57
2023/04/16 07:33:54;;;;;;;;;;;;;;;7.36;100.00;97986.34;18302773;32;20298;-57
2023/04/16 07:43:56;;;;;;;;;;;;;;;7.26;100.00;97992.38;18304020;32;19953;-56
2023/04/16 07:53:59;;;;;;;;;;;;;;;7.31;100.00;98001.59;18289714;32;19946;-57
2023/04/16 08:04:02;;;;;;;;;;;;;;;7.32;100.00;98004.03;18303784;32;19972;-57
2023/04/16 08:14:04;;;;;;;;;;;;;;;7.46;100.00;98015.31;18303031;32;19950;-57
2023/04/16 08:24:07;;;;;;;;;;;;;;;7.70;100.00;98026.78;18302265;32;19953;-56
2023/04/16 08:34:10;;;;;;;;;;;;;;;7.93;100.00;98028.53;18301887;32;19961;-57
2023/04/16 08:44:19;;;;;;;;;;;;;;;8.13;100.00;98036.09;18300168;32;19986;-57
2023/04/16 08:54:31;;;;;;;;;;;;;;;8.12;100.00;98039.03;18287044;32;19960;-57
2023/04/16 09:04:35;;;;;;;;;;;;;;;8.08;100.00;98056.75;18286702;32;20243;-57
2023/04/16 09:14:40;;;;;;;;;;;;;;;8.01;100.00;98061.50;18299867;32;19969;-57
2023/04/16 09:24:42;;;;;;;;;;;;;;;8.22;100.00;98068.03;18285698;32;19965;-57
2023/04/16 09:34:58;;;;;;;;;;;;;;;8.36;100.00;98071.19;18298927;32;19979;-57
2023/04/16 09:45:00;;;;;;;;;;;;;;;8.40;100.00;98072.34;18298318;32;19989;-57
2023/04/16 09:55:07;;;;;;;;;;;;;;;8.49;100.00;98084.38;18297911;32;19965;-56
2023/04/16 10:05:16;;;;;;;;;;;;;;;8.67;100.00;98094.06;18297475;32;20279;-57
2023/04/16 10:15:19;;;;;;;;;;;;;;;9.05;100.00;98100.53;18282861;32;19953;-57
2023/04/16 10:25:22;;;;;;;;;;;;;;;9.33;100.00;98101.44;18296800;32;19953;-57
2023/04/16 10:35:24;;;;;;;;;;;;;;;9.21;100.00;98106.13;18296195;32;19961;-57
2023/04/16 10:45:30;;;;;;;;;;;;;;;8.78;100.00;98106.66;18295134;32;19993;-57
2023/04/16 10:55:37;;;;;;;;;;;;;;;9.07;100.00;98124.56;18281866;32;19969;-57
2023/04/16 11:05:48;;;;;;;;;;;;;;;9.16;100.00;98121.19;18294254;32;19961;-57
2023/04/16 11:15:50;;;;;;;;;;;;;;;9.13;100.00;98113.59;18294531;32;19945;-57
2023/04/16 11:25:56;;;;;;;;;;;;;;;9.54;100.00;98120.56;18294046;32;19949;-57
2023/04/16 11:35:58;;;;;;;;;;;;;;;9.61;100.00;98123.91;18293870;32;19972;-57
2023/04/16 11:46:01;;;;;;;;;;;;;;;9.81;100.00;98123.31;18279527;32;19961;-57
2023/04/16 11:56:28;;;;;;;;;;;;;;;9.46;100.00;98127.25;18293880;32;19988;-57
2023/04/16 12:06:31;;;;;;;;;;;;;;;9.44;100.00;98129.38;18292382;32;19972;-57
2023/04/16 12:16:34;;;;;;;;;;;;;;;9.32;100.00;98134.91;18283423;32;19953;-57
2023/04/16 12:26:41;;;;;;;;;;;;;;;9.33;100.00;98150.00;18288803;32;19949;-57
2023/04/16 12:36:44;;;;;;;;;;;;;;;9.26;100.00;98141.28;18287827;32;19993;-57
2023/04/16 12:46:47;;;;;;;;;;;;;;;9.27;100.00;98142.94;18301237;32;20273;-57
2023/04/16 12:56:49;;;;;;;;;;;;;;;9.62;100.00;98141.72;18286500;32;19982;-57
2023/04/16 13:06:52;;;;;;;;;;;;;;;9.77;100.00;98133.81;18286532;32;19961;-57
2023/04/16 13:16:54;;;;;;;;;;;;;;;9.53;100.00;98137.84;18299711;32;19957;-57
2023/04/16 13:26:56;;;;;;;;;;;;;;;9.97;100.00;98145.91;18299366;32;19960;-57
2023/04/16 13:36:59;;;;;;;;;;;;;;;10.59;100.00;98149.19;18298837;32;19949;-57
2023/04/16 13:47:01;;;;;;;;;;;;;;;10.72;100.00;98140.66;18234255;32;19953;-57
2023/04/16 13:57:04;;;;;;;;;;;;;;;10.76;100.00;98144.47;18235295;32;19961;-57
2023/04/16 14:07:06;;;;;;;;;;;;;;;10.59;100.00;98141.91;18235185;32;20362;-57
2023/04/16 14:17:09;;;;;;;;;;;;;;;10.24;100.00;98137.78;18234722;32;19992;-57
2023/04/16 14:27:12;;;;;;;;;;;;;;;10.13;100.00;98131.47;18233554;32;20246;-57
2023/04/16 14:37:16;;;;;;;;;;;;;;;10.32;100.00;98133.81;18232172;32;20021;-57
2023/04/16 14:47:19;;;;;;;;;;;;;;;10.69;100.00;98138.47;18231140;32;19954;-57
2023/04/16 14:57:21;;;;;;;;;;;;;;;11.48;100.00;98138.66;18231177;32;19970;-57
2023/04/16 15:07:25;;;;;;;;;;;;;;;11.48;100.00;98136.78;18230758;32;19997;-57
2023/04/16 15:17:27;;;;;;;;;;;;;;;11.17;100.00;98141.22;18231601;32;19958;-57
2023/04/16 15:27:30;;;;;;;;;;;;;;;10.84;100.00;98146.69;18229953;32;19961;-57
2023/04/16 15:37:32;;;;;;;;;;;;;;;11.41;100.00;98144.31;18230432;32;19953;-57
2023/04/16 15:47:35;;;;;;;;;;;;;;;12.20;100.00;98144.31;18229615;32;19969;-57
2023/04/16 15:57:41;;;;;;;;;;;;;;;12.57;100.00;98143.25;18240541;32;19954;-57
2023/04/16 16:07:44;;;;;;;;;;;;;;;12.25;100.00;98149.75;18240196;32;19982;-57
2023/04/16 16:17:46;;;;;;;;;;;;;;;11.65;100.00;98143.88;18239860;32;19958;-57
2023/04/16 16:27:49;;;;;;;;;;;;;;;11.23;100.00;98147.47;18239268;32;19958;-57
2023/04/16 16:37:56;;;;;;;;;;;;;;;10.59;100.00;98144.62;18237449;32;19949;-57
2023/04/16 16:47:58;;;;;;;;;;;;;;;10.22;100.00;98155.34;18295352;32;19964;-57
2023/04/16 16:58:00;;;;;;;;;;;;;;;9.99;100.00;98163.50;18301399;32;20380;-57
2023/04/16 17:08:03;;;;;;;;;;;;;;;9.75;100.00;98167.53;18286073;32;19946;-57
2023/04/16 17:18:05;;;;;;;;;;;;;;;9.58;100.00;98165.72;18300301;32;19946;-57
2023/04/16 17:28:08;;;;;;;;;;;;;;;9.37;100.00;98178.13;18299571;32;19949;-57
2023/04/16 17:38:10;;;;;;;;;;;;;;;9.22;100.00;98172.53;18298901;32;19949;-57
2023/04/16 17:48:13;;;;;;;;;;;;;;;9.05;100.00;98169.88;18298278;32;19953;-57
2023/04/16 17:58:15;;;;;;;;;;;;;;;8.90;100.00;98186.66;18298092;32;19980;-57
2023/04/16 18:08:17;;;;;;;;;;;;;;;8.75;100.00;98189.91;18297628;32;20275;-56
2023/04/16 18:18:20;;;;;;;;;;;;;;;8.65;100.00;98193.25;18283416;32;20351;-57
2023/04/16 18:28:22;;;;;;;;;;;;;;;8.53;100.00;98196.03;18282675;32;19942;-57
2023/04/16 18:38:25;;;;;;;;;;;;;;;8.43;100.00;98199.34;18296360;32;19954;-57
2023/04/16 18:48:27;;;;;;;;;;;;;;;8.36;100.00;98205.94;18295682;32;19967;-57
2023/04/16 18:58:30;;;;;;;;;;;;;;;8.31;100.00;98222.81;18295303;32;20262;-57
2023/04/16 19:08:33;;;;;;;;;;;;;;;8.27;100.00;98224.38;18295039;32;19987;-57
2023/04/16 19:18:35;;;;;;;;;;;;;;;8.22;100.00;98226.97;18294699;32;19975;-56
2023/04/16 19:28:38;;;;;;;;;;;;;;;8.20;100.00;98229.09;18287872;32;19957;-57
2023/04/16 19:38:40;;;;;;;;;;;;;;;8.16;100.00;98233.31;18305406;32;20337;-57
2023/04/16 19:48:43;;;;;;;;;;;;;;;8.12;100.00;98239.16;18290730;32;19953;-57
2023/04/16 19:58:45;;;;;;;;;;;;;;;8.07;100.00;98238.25;18304069;32;19949;-57
2023/04/16 20:08:47;;;;;;;;;;;;;;;8.06;100.00;98239.34;18303624;32;19957;-56
2023/04/16 20:18:53;;;;;;;;;;;;;;;8.04;100.00;98228.78;18303278;32;20005;-57
2023/04/16 20:28:55;;;;;;;;;;;;;;;8.03;100.00;98229.84;18302818;32;19975;-57
2023/04/16 20:38:58;;;;;;;;;;;;;;;8.01;100.00;98231.16;18302036;32;19975;-56
2023/04/16 20:49:00;;;;;;;;;;;;;;;8.02;100.00;98224.72;18301508;32;19953;-57
2023/04/16 20:59:03;;;;;;;;;;;;;;;8.01;100.00;98215.81;18301103;32;20273;-56
2023/04/16 21:09:05;;;;;;;;;;;;;;;8.01;100.00;98209.59;18300545;32;19981;-57
2023/04/16 21:19:07;;;;;;;;;;;;;;;7.96;100.00;98196.84;18286270;32;19953;-57
2023/04/16 21:29:10;;;;;;;;;;;;;;;7.90;100.00;98197.81;18299654;32;19972;-57
2023/04/16 21:39:14;;;;;;;;;;;;;;;7.85;100.00;98189.63;18299097;32;19954;-56
2023/04/16 21:49:16;;;;;;;;;;;;;;;7.81;100.00;98183.91;18284874;32;20337;-57
2023/04/16 21:59:19;;;;;;;;;;;;;;;7.78;100.00;98179.84;18298002;32;19979;-56
2023/04/16 22:09:23;;;;;;;;;;;;;;;7.76;100.00;98183.81;18283534;32;20004;-57
2023/04/16 22:19:27;;;;;;;;;;;;;;;7.73;100.00;98171.66;18297314;32;20326;-56
2023/04/16 22:29:29;;;;;;;;;;;;;;;7.72;100.00;98174.59;18296625;32;20242;-57
2023/04/16 22:39:31;;;;;;;;;;;;;;;7.69;100.00;98164.28;18295989;32;19989;-57
2023/04/16 22:49:33;;;;;;;;;;;;;;;7.65;100.00;98158.56;18296195;32;19986;-56
2023/04/16 22:59:36;;;;;;;;;;;;;;;7.64;100.00;98157.72;18294403;32;19950;-57
2023/04/16 23:09:38;;;;;;;;;;;;;;;7.64;100.00;98157.72;18281454;32;19945;-57
2023/04/16 23:19:40;;;;;;;;;;;;;;;7.64;100.00;98155.03;18294702;32;19957;-57
2023/04/16 23:29:42;;;;;;;;;;;;;;;7.62;100.00;98148.28;18294137;32;19949;-57
2023/04/16 23:39:45;;;;;;;;;;;;;;;7.61;100.00;98146.66;18293487;32;20325;-57
2023/04/16 23:49:47;;;;;;;;;;;;;;;7.59;100.00;98132.59;18293855;32;20004;-57
2023/04/16 23:59:49;;;;;;;;;;;;;;;7.56;100.00;98125.00;18292797;32;19949;-57
